PWSweather.com
Personal Weather Stations
Station Observations

Banska StiavnicaSK

Lat: 48.4359865, Lon: 18.8969299

Elevation: 1804

Station Type: Garni WH1080

http://www.weather-in-banska-stiavnica.sk/index.php

Latest ConditionsUpdated 4:00:02 PM GMT+01:01 Wednesday, Nov 21, 2018
Currently Today's Max Today's Min Today's Average
Temperature 42.1°F5.6°C 42.4°F5.8°C 35.4°F1.9°C 38.5°F3.6°C
Dew Point 40.8°F4.9°C 42.0°F5.6°C 32.8°F0.4°C 37.3°F2.9°C
Winds 0.4 mph S0.6 kmh S 1.8 mph -2.9 kmh - - 0.4 mph 0.6 kmh
Wind Gusts 2.2 mph3.5 kmh 5.4 mph8.7 kmh - -
Humidity 95% 99% 90% 95%
Pressure 29.91 in1012.9 mb 29.91 in1012.9 mb 29.81 in1009.5 mb -
Precipitation - 0.05 in1.3 mm - -
Hour Temp Dew Point Humidity Winds Wind Gusts Pressure Precip Precip Rate Daily Precip Total
04:00 PM 42.1°F5.6°C 40.8°F4.9°C 95% 0.4 mph S0.6 kmh S 2.2 mph3.5 kmh 29.91 in1012.9 mb 0.00 in0.0 mm 0.00 in0.0 mm 0.05 in1.3 mm
03:30 PM 42.4°F5.8°C 41.1°F5.1°C 95% Calm Calm 2.2 mph3.5 kmh 29.90 in1012.5 mb 0.00 in0.0 mm 0.00 in0.0 mm 0.05 in1.3 mm
03:00 PM 42.4°F5.8°C 41.4°F5.2°C 96% Calm Calm 1.6 mph2.6 kmh 29.89 in1012.2 mb 0.00 in0.0 mm 0.00 in0.0 mm 0.05 in1.3 mm
02:30 PM 42.4°F5.8°C 41.7°F5.4°C 97% Calm Calm -- 29.89 in1012.2 mb 0.00 in0.0 mm 0.00 in0.0 mm 0.05 in1.3 mm
02:00 PM 42.4°F5.8°C 41.9°F5.5°C 98% 0.2 mph NNE0.3 kmh NNE 1.6 mph2.6 kmh 29.88 in1011.9 mb 0.00 in0.0 mm 0.00 in0.0 mm 0.05 in1.3 mm
01:30 PM 42.3°F5.7°C 42.0°F5.6°C 99% 0.6 mph N1.0 kmh N 3.1 mph5.0 kmh 29.88 in1011.9 mb 0.00 in0.0 mm 0.00 in0.0 mm 0.05 in1.3 mm
01:00 PM 41.9°F5.5°C 41.6°F5.3°C 99% 1.3 mph NE2.1 kmh NE 5.4 mph8.7 kmh 29.88 in1011.9 mb 0.00 in0.0 mm 0.00 in0.0 mm 0.05 in1.3 mm
12:30 PM 41.4°F5.2°C 41.1°F5.1°C 99% 0.7 mph NE1.1 kmh NE 3.1 mph5.0 kmh 29.88 in1011.9 mb 0.00 in0.0 mm 0.00 in0.0 mm 0.05 in1.3 mm
12:00 PM 40.8°F4.9°C 40.6°F4.8°C 99% 1.2 mph NE1.9 kmh NE 4.5 mph7.2 kmh 29.88 in1011.9 mb 0.00 in0.0 mm 0.00 in0.0 mm 0.05 in1.3 mm
11:30 AM 40.5°F4.7°C 40.2°F4.6°C 99% 1.3 mph NNE2.1 kmh NNE 3.8 mph6.1 kmh 29.88 in1011.9 mb 0.00 in0.0 mm 0.00 in0.0 mm 0.05 in1.3 mm
11:00 AM 40.1°F4.5°C 39.8°F4.3°C 99% 0.3 mph N0.5 kmh N 2.2 mph3.5 kmh 29.88 in1011.9 mb 0.00 in0.0 mm 0.00 in0.0 mm 0.05 in1.3 mm
10:30 AM 39.4°F4.1°C 38.9°F3.8°C 98% 0.7 mph ENE1.1 kmh ENE 3.8 mph6.1 kmh 29.89 in1012.2 mb 0.00 in0.0 mm 0.00 in0.0 mm 0.05 in1.3 mm
10:00 AM 38.7°F3.7°C 38.1°F3.4°C 98% 0.5 mph N0.8 kmh N 3.8 mph6.1 kmh 29.89 in1012.2 mb 0.00 in0.0 mm 0.00 in0.0 mm 0.05 in1.3 mm
09:30 AM 38.3°F3.5°C 37.5°F3.1°C 97% 0.9 mph NE1.4 kmh NE 4.5 mph7.2 kmh 29.88 in1011.9 mb 0.00 in0.0 mm 0.00 in0.0 mm 0.05 in1.3 mm
09:00 AM 38.1°F3.4°C 37.3°F2.9°C 97% 1.1 mph ENE1.8 kmh ENE 3.8 mph6.1 kmh 29.88 in1011.9 mb 0.01 in0.3 mm 0.00 in0.0 mm 0.05 in1.3 mm
08:30 AM 37.8°F3.2°C 37.0°F2.8°C 97% Calm Calm 0.7 mph1.1 kmh 29.88 in1011.9 mb 0.01 in0.3 mm 0.02 in0.5 mm 0.05 in1.3 mm
08:00 AM 37.4°F3.0°C 36.4°F2.4°C 96% Calm Calm -- 29.87 in1011.5 mb 0.00 in0.0 mm 0.00 in0.0 mm 0.04 in1.0 mm
07:30 AM 37.2°F2.9°C 36.2°F2.3°C 96% Calm Calm 2.2 mph3.5 kmh 29.87 in1011.5 mb 0.00 in0.0 mm 0.00 in0.0 mm 0.04 in1.0 mm
07:00 AM 36.9°F2.7°C 35.8°F2.1°C 96% 0.1 mph S0.2 kmh S 2.2 mph3.5 kmh 29.87 in1011.5 mb 0.00 in0.0 mm 0.00 in0.0 mm 0.04 in1.0 mm
06:30 AM 37.2°F2.9°C 35.9°F2.2°C 95% Calm Calm 1.6 mph2.6 kmh 29.86 in1011.2 mb 0.00 in0.0 mm 0.00 in0.0 mm 0.04 in1.0 mm
06:00 AM 37.0°F2.8°C 35.7°F2.1°C 95% 0.1 mph NNW0.2 kmh NNW 1.6 mph2.6 kmh 29.84 in1010.5 mb 0.00 in0.0 mm 0.00 in0.0 mm 0.04 in1.0 mm
05:30 AM 36.9°F2.7°C 35.6°F2.0°C 95% 0.1 mph N0.2 kmh N 1.6 mph2.6 kmh 29.84 in1010.5 mb 0.00 in0.0 mm 0.00 in0.0 mm 0.04 in1.0 mm
05:00 AM 36.7°F2.6°C 35.1°F1.7°C 94% 0.2 mph NNE0.3 kmh NNE 2.2 mph3.5 kmh 29.84 in1010.5 mb 0.00 in0.0 mm 0.00 in0.0 mm 0.04 in1.0 mm
04:30 AM 36.5°F2.5°C 34.9°F1.6°C 94% Calm Calm 0.7 mph1.1 kmh 29.84 in1010.5 mb 0.00 in0.0 mm 0.00 in0.0 mm 0.04 in1.0 mm
04:00 AM 36.5°F2.5°C 34.9°F1.6°C 94% Calm Calm -- 29.84 in1010.5 mb 0.00 in0.0 mm 0.00 in0.0 mm 0.04 in1.0 mm
03:30 AM 36.5°F2.5°C 34.7°F1.5°C 93% 1.1 mph ENE1.8 kmh ENE 4.5 mph7.2 kmh 29.82 in1009.8 mb 0.00 in0.0 mm 0.00 in0.0 mm 0.04 in1.0 mm
03:00 AM 36.3°F2.4°C 34.5°F1.4°C 93% 0.4 mph N0.6 kmh N 3.1 mph5.0 kmh 29.81 in1009.5 mb 0.01 in0.3 mm 0.00 in0.0 mm 0.04 in1.0 mm
02:30 AM 36.1°F2.3°C 34.0°F1.1°C 92% 0.6 mph N1.0 kmh N 3.8 mph6.1 kmh 29.81 in1009.5 mb 0.01 in0.3 mm 0.00 in0.0 mm 0.04 in1.0 mm
02:00 AM 36.0°F2.2°C 33.9°F1.1°C 92% 0.3 mph N0.5 kmh N 2.2 mph3.5 kmh 29.82 in1009.8 mb 0.01 in0.3 mm 0.00 in0.0 mm 0.02 in0.5 mm
01:30 AM 36.0°F2.2°C 33.6°F0.9°C 91% 0.5 mph NNE0.8 kmh NNE 3.1 mph5.0 kmh 29.83 in1010.2 mb 0.01 in0.3 mm 0.00 in0.0 mm 0.02 in0.5 mm
01:00 AM 36.0°F2.2°C 33.6°F0.9°C 91% 1.8 mph NNE2.9 kmh NNE 4.5 mph7.2 kmh 29.83 in1010.2 mb 0.01 in0.3 mm 0.00 in0.0 mm 0.01 in0.3 mm
12:30 AM 35.8°F2.1°C 33.1°F0.6°C 90% Calm Calm 2.2 mph3.5 kmh 29.83 in1010.2 mb 0.02 in0.5 mm 0.00 in0.0 mm 0.01 in0.3 mm
12:00 AM 35.4°F1.9°C 32.8°F0.4°C 90% 0.3 mph NE0.5 kmh NE 1.6 mph2.6 kmh 29.84 in1010.5 mb 0.02 in0.5 mm 0.00 in0.0 mm 0.02 in0.5 mm